sensor_id;sensor_type;location;lat;lon;timestamp;P1;P2;P0
58740;PMS7003;44512;53.046;18.604;2023-05-20T00:05:13;2;2;1
58740;PMS7003;44512;53.046;18.604;2023-05-20T00:15:42;3;3;3
58740;PMS7003;44512;53.046;18.604;2023-05-20T00:26:10;5;3;3
58740;PMS7003;44512;53.046;18.604;2023-05-20T00:36:38;2;2;2
58740;PMS7003;44512;53.046;18.604;2023-05-20T00:47:07;4;3;3
58740;PMS7003;44512;53.046;18.604;2023-05-20T00:57:35;5;3;3
58740;PMS7003;44512;53.046;18.604;2023-05-20T01:08:04;3;3;3
58740;PMS7003;44512;53.046;18.604;2023-05-20T01:18:32;6;4;3
58740;PMS7003;44512;53.046;18.604;2023-05-20T01:29:00;4;4;3
58740;PMS7003;44512;53.046;18.604;2023-05-20T01:39:29;4;4;3
58740;PMS7003;44512;53.046;18.604;2023-05-20T01:49:57;5;4;4
58740;PMS7003;44512;53.046;18.604;2023-05-20T02:00:25;6;4;3
58740;PMS7003;44512;53.046;18.604;2023-05-20T02:10:54;4;3;3
58740;PMS7003;44512;53.046;18.604;2023-05-20T02:21:22;5;4;3
58740;PMS7003;44512;53.046;18.604;2023-05-20T02:31:51;5;4;3
58740;PMS7003;44512;53.046;18.604;2023-05-20T02:42:19;4;4;3
58740;PMS7003;44512;53.046;18.604;2023-05-20T02:52:47;5;4;3
58740;PMS7003;44512;53.046;18.604;2023-05-20T03:03:16;7;4;4
58740;PMS7003;44512;53.046;18.604;2023-05-20T03:13:44;3;3;2
58740;PMS7003;44512;53.046;18.604;2023-05-20T03:24:13;4;4;3
58740;PMS7003;44512;53.046;18.604;2023-05-20T03:34:41;4;3;2
58740;PMS7003;44512;53.046;18.604;2023-05-20T03:45:10;6;4;4
58740;PMS7003;44512;53.046;18.604;2023-05-20T03:55:38;6;4;3
58740;PMS7003;44512;53.046;18.604;2023-05-20T04:06:06;5;5;5
58740;PMS7003;44512;53.046;18.604;2023-05-20T04:16:34;7;6;4
58740;PMS7003;44512;53.046;18.604;2023-05-20T04:27:03;7;7;5
58740;PMS7003;44512;53.046;18.604;2023-05-20T04:37:31;6;4;3
58740;PMS7003;44512;53.046;18.604;2023-05-20T04:47:59;4;4;3
58740;PMS7003;44512;53.046;18.604;2023-05-20T04:58:28;4;4;3
58740;PMS7003;44512;53.046;18.604;2023-05-20T05:08:56;7;7;5
58740;PMS7003;44512;53.046;18.604;2023-05-20T05:19:24;4;4;3
58740;PMS7003;44512;53.046;18.604;2023-05-20T05:29:53;7;6;5
58740;PMS7003;44512;53.046;18.604;2023-05-20T05:40:21;6;4;3
58740;PMS7003;44512;53.046;18.604;2023-05-20T05:50:50;4;4;3
58740;PMS7003;44512;53.046;18.604;2023-05-20T06:01:18;4;3;3
58740;PMS7003;44512;53.046;18.604;2023-05-20T06:11:46;5;5;4
58740;PMS7003;44512;53.046;18.604;2023-05-20T06:22:14;6;5;3
58740;PMS7003;44512;53.046;18.604;2023-05-20T06:32:43;4;4;3
58740;PMS7003;44512;53.046;18.604;2023-05-20T06:43:11;5;5;4
58740;PMS7003;44512;53.046;18.604;2023-05-20T06:53:39;4;3;3
58740;PMS7003;44512;53.046;18.604;2023-05-20T07:04:08;3;3;3
58740;PMS7003;44512;53.046;18.604;2023-05-20T07:14:36;4;4;3
58740;PMS7003;44512;53.046;18.604;2023-05-20T07:25:05;4;4;3
58740;PMS7003;44512;53.046;18.604;2023-05-20T07:35:33;4;4;3
58740;PMS7003;44512;53.046;18.604;2023-05-20T07:46:01;4;4;4
58740;PMS7003;44512;53.046;18.604;2023-05-20T07:56:30;3;3;2
58740;PMS7003;44512;53.046;18.604;2023-05-20T08:06:58;5;4;3
58740;PMS7003;44512;53.046;18.604;2023-05-20T08:17:26;6;5;3
58740;PMS7003;44512;53.046;18.604;2023-05-20T08:27:55;5;5;4
58740;PMS7003;44512;53.046;18.604;2023-05-20T08:38:23;6;4;4
58740;PMS7003;44512;53.046;18.604;2023-05-20T08:48:51;6;4;4
58740;PMS7003;44512;53.046;18.604;2023-05-20T08:59:20;4;3;3
58740;PMS7003;44512;53.046;18.604;2023-05-20T09:09:48;5;4;3
58740;PMS7003;44512;53.046;18.604;2023-05-20T09:20:17;7;6;4
58740;PMS7003;44512;53.046;18.604;2023-05-20T09:30:47;7;5;4
58740;PMS7003;44512;53.046;18.604;2023-05-20T09:41:13;8;6;5
58740;PMS7003;44512;53.046;18.604;2023-05-20T09:51:42;9;7;5
58740;PMS7003;44512;53.046;18.604;2023-05-20T10:02:10;7;6;5
58740;PMS7003;44512;53.046;18.604;2023-05-20T10:12:51;9;8;6
58740;PMS7003;44512;53.046;18.604;2023-05-20T10:23:07;12;9;7
58740;PMS7003;44512;53.046;18.604;2023-05-20T10:33:40;10;8;7
58740;PMS7003;44512;53.046;18.604;2023-05-20T10:44:04;7;7;6
58740;PMS7003;44512;53.046;18.604;2023-05-20T10:54:34;12;10;8
58740;PMS7003;44512;53.046;18.604;2023-05-20T11:05:00;8;8;7
58740;PMS7003;44512;53.046;18.604;2023-05-20T11:15:29;7;7;6
58740;PMS7003;44512;53.046;18.604;2023-05-20T11:25:57;10;9;7
58740;PMS7003;44512;53.046;18.604;2023-05-20T11:36:26;10;8;7
58740;PMS7003;44512;53.046;18.604;2023-05-20T11:46:58;12;9;7
58740;PMS7003;44512;53.046;18.604;2023-05-20T11:57:22;9;9;7
58740;PMS7003;44512;53.046;18.604;2023-05-20T12:07:50;9;8;6
58740;PMS7003;44512;53.046;18.604;2023-05-20T12:18:19;11;8;7
58740;PMS7003;44512;53.046;18.604;2023-05-20T12:28:47;9;9;7
58740;PMS7003;44512;53.046;18.604;2023-05-20T12:39:15;11;10;8
58740;PMS7003;44512;53.046;18.604;2023-05-20T12:49:44;11;9;8
58740;PMS7003;44512;53.046;18.604;2023-05-20T13:00:12;14;13;11
58740;PMS7003;44512;53.046;18.604;2023-05-20T13:10:40;11;11;9
58740;PMS7003;44512;53.046;18.604;2023-05-20T13:21:09;14;12;8
58740;PMS7003;44512;53.046;18.604;2023-05-20T13:31:37;13;12;9
58740;PMS7003;44512;53.046;18.604;2023-05-20T13:42:05;11;10;8
58740;PMS7003;44512;53.046;18.604;2023-05-20T13:52:34;14;13;10
58740;PMS7003;44512;53.046;18.604;2023-05-20T14:03:02;11;10;8
58740;PMS7003;44512;53.046;18.604;2023-05-20T14:13:30;11;10;7
58740;PMS7003;44512;53.046;18.604;2023-05-20T14:23:59;11;10;8
58740;PMS7003;44512;53.046;18.604;2023-05-20T14:34:27;12;11;9
58740;PMS7003;44512;53.046;18.604;2023-05-20T14:49:31;0;0;0
58740;PMS7003;44512;53.046;18.604;2023-05-20T14:59:32;12;11;9
58740;PMS7003;44512;53.046;18.604;2023-05-20T15:09:34;13;13;11
58740;PMS7003;44512;53.046;18.604;2023-05-20T15:19:35;16;14;11
58740;PMS7003;44512;53.046;18.604;2023-05-20T15:29:36;14;11;9
58740;PMS7003;44512;53.046;18.604;2023-05-20T15:39:37;13;11;9
58740;PMS7003;44512;53.046;18.604;2023-05-20T15:49:39;13;12;9
58740;PMS7003;44512;53.046;18.604;2023-05-20T15:59:41;12;12;10
58740;PMS7003;44512;53.046;18.604;2023-05-20T16:09:42;11;10;9
58740;PMS7003;44512;53.046;18.604;2023-05-20T16:19:44;13;11;9
58740;PMS7003;44512;53.046;18.604;2023-05-20T16:29:45;9;9;8
58740;PMS7003;44512;53.046;18.604;2023-05-20T16:39:46;12;11;9
58740;PMS7003;44512;53.046;18.604;2023-05-20T16:49:48;11;10;8
58740;PMS7003;44512;53.046;18.604;2023-05-20T16:59:49;14;11;9
58740;PMS7003;44512;53.046;18.604;2023-05-20T17:09:51;15;11;9
58740;PMS7003;44512;53.046;18.604;2023-05-20T17:19:52;16;13;10
58740;PMS7003;44512;53.046;18.604;2023-05-20T17:29:54;13;13;11
58740;PMS7003;44512;53.046;18.604;2023-05-20T17:39:55;15;13;11
58740;PMS7003;44512;53.046;18.604;2023-05-20T17:49:57;16;13;11
58740;PMS7003;44512;53.046;18.604;2023-05-20T18:00:01;17;14;11
58740;PMS7003;44512;53.046;18.604;2023-05-20T18:10:06;16;16;11
58740;PMS7003;44512;53.046;18.604;2023-05-20T18:20:08;19;18;14
58740;PMS7003;44512;53.046;18.604;2023-05-20T18:30:10;20;17;14
58740;PMS7003;44512;53.046;18.604;2023-05-20T18:40:34;19;17;14
58740;PMS7003;44512;53.046;18.604;2023-05-20T18:51:03;23;21;17
58740;PMS7003;44512;53.046;18.604;2023-05-20T19:01:31;22;20;15
58740;PMS7003;44512;53.046;18.604;2023-05-20T19:11:59;19;17;13
58740;PMS7003;44512;53.046;18.604;2023-05-20T19:22:28;15;14;11
58740;PMS7003;44512;53.046;18.604;2023-05-20T19:32:56;14;13;11
58740;PMS7003;44512;53.046;18.604;2023-05-20T19:43:24;15;13;11
58740;PMS7003;44512;53.046;18.604;2023-05-20T19:53:53;8;7;6
58740;PMS7003;44512;53.046;18.604;2023-05-20T20:04:21;16;13;11
58740;PMS7003;44512;53.046;18.604;2023-05-20T20:14:50;16;13;11
58740;PMS7003;44512;53.046;18.604;2023-05-20T20:25:18;17;15;12
58740;PMS7003;44512;53.046;18.604;2023-05-20T20:35:46;18;15;13
58740;PMS7003;44512;53.046;18.604;2023-05-20T20:46:14;19;18;14
58740;PMS7003;44512;53.046;18.604;2023-05-20T20:56:43;22;20;16
58740;PMS7003;44512;53.046;18.604;2023-05-20T21:07:11;24;22;16
58740;PMS7003;44512;53.046;18.604;2023-05-20T21:17:39;24;23;17
58740;PMS7003;44512;53.046;18.604;2023-05-20T21:28:08;26;23;16
58740;PMS7003;44512;53.046;18.604;2023-05-20T21:38:36;27;24;18
58740;PMS7003;44512;53.046;18.604;2023-05-20T21:49:04;29;25;18
58740;PMS7003;44512;53.046;18.604;2023-05-20T21:59:33;30;25;18
58740;PMS7003;44512;53.046;18.604;2023-05-20T22:10:01;27;25;19
58740;PMS7003;44512;53.046;18.604;2023-05-20T22:20:30;28;25;18
58740;PMS7003;44512;53.046;18.604;2023-05-20T22:30:58;24;23;17
58740;PMS7003;44512;53.046;18.604;2023-05-20T22:41:26;25;23;17
58740;PMS7003;44512;53.046;18.604;2023-05-20T22:51:55;22;21;17
58740;PMS7003;44512;53.046;18.604;2023-05-20T23:02:24;25;21;16
58740;PMS7003;44512;53.046;18.604;2023-05-20T23:12:51;24;21;16
58740;PMS7003;44512;53.046;18.604;2023-05-20T23:23:20;22;19;15
58740;PMS7003;44512;53.046;18.604;2023-05-20T23:33:48;19;18;14
58740;PMS7003;44512;53.046;18.604;2023-05-20T23:44:16;21;19;15
58740;PMS7003;44512;53.046;18.604;2023-05-20T23:54:45;20;19;15
